createdAt,value
2019-02-11T00:02:33.577Z,70.67
2019-02-11T00:05:40.355Z,76.53
2019-02-11T00:08:47.187Z,70.93
2019-02-11T00:11:54.021Z,76.90
2019-02-11T00:15:00.782Z,76.33
2019-02-11T00:18:08.001Z,71.47
2019-02-11T00:21:14.769Z,72.20
2019-02-11T00:24:21.574Z,66.60
2019-02-11T00:27:28.405Z,59.00
2019-02-11T00:30:35.224Z,64.97
2019-02-11T00:33:42.002Z,74.37
2019-02-11T00:36:48.769Z,60.53
2019-02-11T00:39:55.729Z,58.33
2019-02-11T00:43:02.522Z,58.70
2019-02-11T00:46:09.363Z,42.27
2019-02-11T00:49:16.155Z,71.20
2019-02-11T00:52:23.225Z,79.57
2019-02-11T00:55:30.201Z,69.50
2019-02-11T00:58:36.923Z,49.93
2019-02-11T01:01:43.693Z,53.17
2019-02-11T01:04:50.461Z,47.30
2019-02-11T01:07:57.167Z,33.77
2019-02-11T01:11:03.915Z,32.47
2019-02-11T01:14:10.637Z,36.37
2019-02-11T01:17:17.441Z,43.37
2019-02-11T01:20:24.195Z,36.43
2019-02-11T01:23:30.927Z,43.47
2019-02-11T01:26:37.677Z,32.73
2019-02-11T01:29:44.378Z,47.20
2019-02-11T01:32:51.115Z,45.27
2019-02-11T01:35:57.963Z,36.30
2019-02-11T01:39:04.859Z,30.93
2019-02-11T01:42:11.659Z,34.93
2019-02-11T01:45:18.617Z,31.30
2019-02-11T01:48:25.359Z,29.10
2019-02-11T01:51:32.127Z,35.87
2019-02-11T01:54:38.828Z,33.77
2019-02-11T01:57:45.608Z,28.27
2019-02-11T02:00:52.305Z,32.40
2019-02-11T02:03:59.093Z,31.87
2019-02-11T02:07:05.871Z,30.53
2019-02-11T02:10:14.103Z,30.27
2019-02-11T02:13:20.839Z,27.93
2019-02-11T02:16:27.553Z,24.60
2019-02-11T02:19:34.395Z,24.63
2019-02-11T02:22:41.125Z,24.67
2019-02-11T02:25:47.918Z,24.13
2019-02-11T02:28:54.681Z,29.97
2019-02-11T02:32:01.511Z,26.10
2019-02-11T02:35:08.297Z,20.40
2019-02-11T02:38:15.056Z,21.53
2019-02-11T02:41:21.868Z,24.37
2019-02-11T02:44:28.607Z,22.60
2019-02-11T02:47:35.310Z,17.40
2019-02-11T02:50:42.105Z,16.10
2019-02-11T02:53:48.918Z,18.43
2019-02-11T02:56:55.587Z,24.40
2019-02-11T03:00:02.391Z,20.93
2019-02-11T03:03:09.129Z,22.37
2019-02-11T03:06:16.365Z,16.00
2019-02-11T03:09:23.363Z,22.43
2019-02-11T03:12:30.239Z,29.77
2019-02-11T03:15:37.047Z,33.40
2019-02-11T03:18:43.868Z,27.47
2019-02-11T03:21:50.666Z,29.73
2019-02-11T03:24:57.447Z,33.93
2019-02-11T03:28:04.187Z,25.07
2019-02-11T03:31:10.913Z,30.60
2019-02-11T03:34:17.651Z,27.07
2019-02-11T03:37:24.444Z,28.93
2019-02-11T03:40:31.235Z,30.97
2019-02-11T03:43:38.015Z,35.37
2019-02-11T03:46:44.798Z,30.23
2019-02-11T03:49:51.607Z,32.37
2019-02-11T03:52:59.099Z,32.70
2019-02-11T03:56:05.846Z,36.90
2019-02-11T03:59:12.665Z,36.33
2019-02-11T04:02:20.460Z,26.40
2019-02-11T04:05:27.243Z,22.53
2019-02-11T04:08:34.037Z,25.80
2019-02-11T04:11:40.789Z,24.83
2019-02-11T04:14:47.527Z,30.17
2019-02-11T04:17:54.253Z,33.40
2019-02-11T04:21:01.046Z,32.70
2019-02-11T04:24:07.860Z,35.80
2019-02-11T04:27:14.563Z,44.47
2019-02-11T04:30:21.278Z,34.83
2019-02-11T04:33:28.087Z,28.90
2019-02-11T04:36:34.780Z,36.70
2019-02-11T04:39:41.610Z,35.97
2019-02-11T04:42:48.335Z,37.23
2019-02-11T04:45:55.131Z,39.87
2019-02-11T04:49:01.784Z,42.20
2019-02-11T04:52:08.473Z,41.83
2019-02-11T04:55:15.228Z,47.67
2019-02-11T04:58:21.955Z,37.97
2019-02-11T05:01:28.657Z,34.57
2019-02-11T05:04:35.379Z,39.37
2019-02-11T05:07:42.068Z,35.70
2019-02-11T05:10:48.933Z,29.03
2019-02-11T05:13:58.451Z,31.00
2019-02-11T05:17:05.201Z,33.70
2019-02-11T05:20:11.964Z,33.70
2019-02-11T05:23:18.804Z,33.47
2019-02-11T05:26:25.558Z,33.27
2019-02-11T05:29:32.275Z,38.60
2019-02-11T05:32:39.043Z,39.63
2019-02-11T05:35:45.804Z,35.60
2019-02-11T05:38:52.553Z,40.33
2019-02-11T05:41:59.417Z,36.67
2019-02-11T05:45:06.487Z,36.57
2019-02-11T05:48:13.180Z,41.60
2019-02-11T05:51:19.978Z,35.53
2019-02-11T05:54:26.689Z,33.03
2019-02-11T05:57:33.397Z,39.50
2019-02-11T06:00:40.195Z,47.57
2019-02-11T06:03:46.989Z,36.13
2019-02-11T06:06:53.756Z,45.03
2019-02-11T06:10:00.561Z,48.03
2019-02-11T06:13:07.328Z,47.97
2019-02-11T06:16:14.100Z,46.48
2019-02-11T06:19:20.916Z,44.43
2019-02-11T06:22:27.652Z,32.83
2019-02-11T06:25:34.504Z,39.20
2019-02-11T06:28:41.394Z,32.00
2019-02-11T06:31:48.092Z,31.60
2019-02-11T06:34:54.800Z,37.47
2019-02-11T06:38:01.525Z,35.87
2019-02-11T06:41:08.271Z,36.03
2019-02-11T06:44:15.014Z,33.97
2019-02-11T06:47:21.742Z,27.60
2019-02-11T06:50:28.641Z,34.17
2019-02-11T06:53:35.357Z,30.47
2019-02-11T06:56:42.134Z,31.57
2019-02-11T06:59:48.970Z,36.83
2019-02-11T07:02:55.770Z,38.20
2019-02-11T07:06:02.606Z,32.50
2019-02-11T07:09:09.434Z,28.10
2019-02-11T07:12:16.144Z,41.27
2019-02-11T07:15:22.903Z,32.37
2019-02-11T07:18:29.626Z,49.07
2019-02-11T07:21:36.359Z,28.33
2019-02-11T07:24:43.164Z,52.63
2019-02-11T07:27:49.889Z,98.07
2019-02-11T07:30:57.818Z,40.00
2019-02-11T07:34:04.930Z,45.57
2019-02-11T07:37:12.087Z,47.80
2019-02-11T07:40:19.344Z,27.07
2019-02-11T07:43:43.674Z,44.97
2019-02-11T07:46:58.998Z,35.63
2019-02-11T07:50:05.814Z,29.97
2019-02-11T07:53:12.516Z,25.30
2019-02-11T07:56:19.332Z,30.80
2019-02-11T07:59:26.089Z,29.60
2019-02-11T08:02:32.945Z,29.97
2019-02-11T08:05:39.824Z,28.23
2019-02-11T08:08:46.562Z,22.10
2019-02-11T08:11:53.443Z,21.50
2019-02-11T08:15:00.209Z,18.00
2019-02-11T08:18:06.934Z,27.23
2019-02-11T08:21:13.854Z,23.27
2019-02-11T08:24:20.684Z,32.70
2019-02-11T08:27:27.384Z,35.13
2019-02-11T08:30:34.274Z,16.47
2019-02-11T08:33:40.968Z,25.07
2019-02-11T08:36:47.696Z,28.53
2019-02-11T08:39:54.832Z,24.17
2019-02-11T08:43:01.594Z,22.60
2019-02-11T08:46:08.394Z,17.80
2019-02-11T08:49:15.126Z,25.57
2019-02-11T08:52:21.913Z,28.90
2019-02-11T08:55:28.667Z,26.03
2019-02-11T08:58:36.317Z,20.17
2019-02-11T09:01:43.108Z,22.23
2019-02-11T09:04:49.850Z,24.00
2019-02-11T09:07:56.756Z,29.97
2019-02-11T09:11:05.100Z,26.07
2019-02-11T09:14:11.912Z,31.90
2019-02-11T09:17:18.642Z,35.53
2019-02-11T09:20:25.394Z,31.37
2019-02-11T09:23:32.104Z,33.17
2019-02-11T09:26:38.956Z,59.83
2019-02-11T09:29:45.711Z,39.60
2019-02-11T09:32:52.470Z,28.70
2019-02-11T09:35:59.441Z,34.87
2019-02-11T09:39:07.132Z,19.10
2019-02-11T09:42:13.978Z,19.30
2019-02-11T09:45:21.683Z,18.97
2019-02-11T09:48:28.431Z,20.50
2019-02-11T09:51:38.965Z,24.90
2019-02-11T09:54:45.667Z,14.63
2019-02-11T09:57:52.380Z,15.43
2019-02-11T10:00:59.242Z,14.37
2019-02-11T10:04:07.069Z,12.00
2019-02-11T10:07:13.884Z,8.53
2019-02-11T10:10:20.597Z,7.60
2019-02-11T10:13:27.498Z,9.33
2019-02-11T10:16:34.198Z,14.53
2019-02-11T10:19:40.947Z,15.03
2019-02-11T10:22:47.773Z,15.37
2019-02-11T10:25:54.460Z,9.23
2019-02-11T10:29:01.299Z,14.10
2019-02-11T10:32:08.151Z,11.13
2019-02-11T10:35:15.146Z,9.90
2019-02-11T10:38:21.965Z,15.23
2019-02-11T10:41:28.748Z,13.30
2019-02-11T10:44:35.669Z,23.90
2019-02-11T10:47:43.748Z,16.30
2019-02-11T10:50:50.650Z,12.50
2019-02-11T10:53:58.434Z,16.83
2019-02-11T10:57:05.222Z,18.63
2019-02-11T11:00:17.209Z,16.10
2019-02-11T11:03:24.096Z,15.83
2019-02-11T11:06:30.910Z,15.30
2019-02-11T11:09:37.748Z,13.03
2019-02-11T11:12:44.521Z,17.23
2019-02-11T11:15:51.281Z,12.60
2019-02-11T11:18:58.003Z,13.17
2019-02-11T11:22:04.740Z,13.10
2019-02-11T11:25:11.576Z,14.10
2019-02-11T11:28:18.384Z,15.90
2019-02-11T11:31:25.508Z,15.30
2019-02-11T11:34:32.314Z,9.93
2019-02-11T11:37:39.099Z,18.23
2019-02-11T11:40:45.852Z,17.87
2019-02-11T11:43:52.576Z,30.73
2019-02-11T11:46:59.402Z,15.77
2019-02-11T11:50:06.440Z,12.93
2019-02-11T11:53:13.280Z,18.60
2019-02-11T11:56:20.087Z,19.47
2019-02-11T11:59:26.806Z,18.10
2019-02-11T12:02:33.731Z,20.30
2019-02-11T12:05:40.451Z,22.43
2019-02-11T12:08:47.246Z,27.00
2019-02-11T12:11:54.029Z,28.27
2019-02-11T12:15:00.885Z,28.50
2019-02-11T12:18:08.425Z,26.90
2019-02-11T12:21:15.285Z,23.53
2019-02-11T12:24:22.131Z,39.30
2019-02-11T12:27:28.871Z,42.87
2019-02-11T12:30:35.619Z,52.43
2019-02-11T12:33:42.523Z,23.50
2019-02-11T12:36:49.324Z,20.80
2019-02-11T12:39:56.068Z,22.40
2019-02-11T12:43:02.832Z,28.30
2019-02-11T12:46:09.635Z,26.53
2019-02-11T12:49:16.390Z,31.03
2019-02-11T12:52:23.255Z,19.23
2019-02-11T12:55:29.973Z,13.50
2019-02-11T12:58:36.722Z,16.40
2019-02-11T13:01:43.603Z,20.97
2019-02-11T13:04:50.345Z,17.87
2019-02-11T13:07:57.042Z,27.33
2019-02-11T13:11:03.804Z,21.70
2019-02-11T13:14:10.548Z,18.80
2019-02-11T13:17:32.824Z,19.57
2019-02-11T13:20:25.791Z,22.30
2019-02-11T13:23:32.507Z,21.20
2019-02-11T13:26:39.231Z,18.03
2019-02-11T13:29:46.037Z,35.03
2019-02-11T13:32:52.813Z,92.07
2019-02-11T13:35:59.621Z,14.20
2019-02-11T13:39:06.990Z,86.10
2019-02-11T13:42:14.221Z,46.83
2019-02-11T13:45:21.059Z,38.90
2019-02-11T13:48:27.979Z,34.87
2019-02-11T13:51:34.728Z,60.27
2019-02-11T13:54:41.461Z,19.43
2019-02-11T13:57:48.188Z,12.50
2019-02-11T14:00:54.944Z,12.07
2019-02-11T14:04:01.699Z,16.67
2019-02-11T14:07:08.476Z,16.57
2019-02-11T14:10:15.218Z,13.47
2019-02-11T14:13:21.955Z,27.80
2019-02-11T14:16:28.734Z,13.30
2019-02-11T14:19:35.458Z,28.57
2019-02-11T14:22:42.214Z,43.33
2019-02-11T14:25:48.917Z,14.50
2019-02-11T14:28:55.697Z,16.37
2019-02-11T14:32:02.603Z,15.33
2019-02-11T14:35:09.465Z,18.27
2019-02-11T14:38:16.478Z,12.47
2019-02-11T14:41:23.519Z,15.77
2019-02-11T14:44:30.337Z,15.60
2019-02-11T14:47:37.347Z,13.60
2019-02-11T14:50:44.219Z,16.60
2019-02-11T14:53:51.139Z,17.37
2019-02-11T14:56:58.109Z,16.33
2019-02-11T15:00:07.165Z,23.73
2019-02-11T15:03:14.031Z,16.10
2019-02-11T15:06:20.911Z,14.77
2019-02-11T15:09:27.735Z,30.97
2019-02-11T15:12:34.544Z,17.00
2019-02-11T15:15:41.330Z,14.10
2019-02-11T15:18:48.101Z,18.80
2019-02-11T15:21:54.955Z,22.33
2019-02-11T15:25:01.710Z,28.20
2019-02-11T15:28:08.694Z,15.07
2019-02-11T15:31:15.621Z,21.83
2019-02-11T15:34:22.382Z,27.70
2019-02-11T15:37:29.226Z,15.50
2019-02-11T15:40:36.704Z,18.80
2019-02-11T15:43:43.526Z,21.50
2019-02-11T15:46:50.347Z,25.30
2019-02-11T15:49:57.213Z,25.50
2019-02-11T15:53:03.992Z,27.37
2019-02-11T15:56:11.840Z,27.90
2019-02-11T15:59:18.614Z,48.43
2019-02-11T16:02:25.438Z,35.00
2019-02-11T16:05:32.247Z,33.47
2019-02-11T16:08:39.084Z,29.00
2019-02-11T16:11:45.904Z,26.80
2019-02-11T16:14:52.658Z,22.40
2019-02-11T16:17:59.495Z,23.80
2019-02-11T16:21:06.376Z,23.67
2019-02-11T16:24:13.212Z,27.10
2019-02-11T16:27:20.036Z,90.33
2019-02-11T16:30:26.774Z,33.70
2019-02-11T16:33:33.752Z,27.23
2019-02-11T16:36:40.738Z,27.50
2019-02-11T16:39:47.852Z,21.13
2019-02-11T16:42:54.742Z,27.87
2019-02-11T16:46:01.637Z,20.27
2019-02-11T16:49:08.429Z,23.23
2019-02-11T16:52:16.306Z,62.87
2019-02-11T16:55:23.087Z,25.33
2019-02-11T16:58:29.872Z,22.07
2019-02-11T17:01:36.614Z,19.53
2019-02-11T17:04:43.366Z,27.37
2019-02-11T17:07:50.216Z,20.70
2019-02-11T17:10:58.445Z,19.70
2019-02-11T17:14:05.284Z,22.13
2019-02-11T17:17:12.119Z,97.67
2019-02-11T17:20:18.928Z,21.47
2019-02-11T17:23:25.654Z,56.53
2019-02-11T17:26:32.401Z,84.90
2019-02-11T17:29:39.172Z,65.37
2019-02-11T17:32:45.957Z,25.70
2019-02-11T17:35:53.689Z,95.53
2019-02-11T17:39:00.477Z,56.70
2019-02-11T17:42:09.000Z,38.03
2019-02-11T17:45:18.474Z,22.80
2019-02-11T17:48:26.872Z,26.43
2019-02-11T17:51:33.590Z,30.93
2019-02-11T17:54:40.327Z,27.27
2019-02-11T17:57:47.244Z,31.43
2019-02-11T18:00:58.253Z,31.57
2019-02-11T18:04:05.181Z,21.00
2019-02-11T18:07:12.038Z,26.47
2019-02-11T18:10:18.839Z,23.13
2019-02-11T18:13:25.733Z,24.07
2019-02-11T18:16:32.479Z,35.63
2019-02-11T18:19:39.311Z,27.00
2019-02-11T18:22:46.117Z,41.83
2019-02-11T18:25:52.987Z,39.83
2019-02-11T18:29:00.967Z,47.03
2019-02-11T18:32:07.806Z,30.47
2019-02-11T18:35:14.682Z,32.93
2019-02-11T18:38:21.556Z,38.27
2019-02-11T18:41:28.443Z,29.33
2019-02-11T18:44:35.275Z,49.43
2019-02-11T18:47:42.079Z,49.60
2019-02-11T18:50:48.787Z,50.97
2019-02-11T18:53:55.561Z,51.20
2019-02-11T18:57:02.451Z,57.47
2019-02-11T19:00:11.463Z,36.00
2019-02-11T19:03:18.223Z,29.87
2019-02-11T19:06:25.061Z,37.07
2019-02-11T19:09:31.877Z,27.00
2019-02-11T19:12:38.673Z,32.80
2019-02-11T19:15:45.433Z,21.73
2019-02-11T19:18:52.166Z,27.13
2019-02-11T19:21:58.948Z,37.90
2019-02-11T19:25:06.916Z,35.00
2019-02-11T19:28:13.901Z,35.37
2019-02-11T19:31:20.635Z,28.43
2019-02-11T19:34:27.397Z,35.90
2019-02-11T19:37:34.546Z,49.83
2019-02-11T19:40:43.297Z,53.03
2019-02-11T19:43:50.064Z,39.57
2019-02-11T19:46:56.891Z,39.10
2019-02-11T19:50:03.689Z,46.50
2019-02-11T19:53:10.471Z,62.43
2019-02-11T19:56:17.337Z,45.57
2019-02-11T19:59:24.199Z,47.03
2019-02-11T20:02:30.947Z,81.37
2019-02-11T20:05:37.785Z,121.27
2019-02-11T20:08:44.627Z,35.80
2019-02-11T20:11:51.393Z,48.33
2019-02-11T20:14:58.185Z,54.63
2019-02-11T20:18:05.075Z,41.00
2019-02-11T20:21:11.861Z,40.67
2019-02-11T20:24:18.705Z,17.30
2019-02-11T20:27:25.490Z,33.33
2019-02-11T20:30:32.414Z,28.43
2019-02-11T20:33:39.207Z,32.00
2019-02-11T20:36:46.018Z,28.07
2019-02-11T20:39:52.773Z,29.10
2019-02-11T20:42:59.579Z,20.93
2019-02-11T20:46:06.397Z,28.83
2019-02-11T20:49:15.127Z,26.87
2019-02-11T20:52:21.897Z,32.57
2019-02-11T20:55:28.747Z,30.63
2019-02-11T20:58:35.722Z,32.47
2019-02-11T21:01:42.609Z,34.83
2019-02-11T21:04:49.359Z,39.27
2019-02-11T21:07:56.138Z,24.73
2019-02-11T21:11:02.915Z,27.83
2019-02-11T21:14:09.667Z,27.07
2019-02-11T21:17:17.039Z,32.33
2019-02-11T21:20:27.069Z,29.27
2019-02-11T21:23:33.975Z,26.87
2019-02-11T21:26:40.886Z,30.73
2019-02-11T21:29:47.624Z,23.40
2019-02-11T21:32:54.435Z,25.07
2019-02-11T21:36:01.354Z,30.43
2019-02-11T21:39:08.096Z,28.37
2019-02-11T21:42:14.817Z,23.20
2019-02-11T21:45:21.594Z,22.93
2019-02-11T21:48:28.385Z,26.67
2019-02-11T21:51:35.175Z,45.20
2019-02-11T21:54:41.963Z,25.60
2019-02-11T21:57:48.699Z,34.90
2019-02-11T22:01:02.107Z,26.43
2019-02-11T22:04:04.211Z,29.23
2019-02-11T22:07:12.069Z,25.40
2019-02-11T22:10:19.138Z,26.37
2019-02-11T22:13:25.856Z,26.13
2019-02-11T22:16:32.558Z,31.30
2019-02-11T22:19:39.302Z,25.83
2019-02-11T22:22:46.170Z,23.20
2019-02-11T22:25:52.911Z,24.70
2019-02-11T22:28:59.669Z,29.03
2019-02-11T22:32:06.479Z,28.50
2019-02-11T22:35:13.199Z,23.27
2019-02-11T22:38:19.934Z,20.43
2019-02-11T22:41:27.507Z,23.30
2019-02-11T22:44:34.362Z,20.90
2019-02-11T22:47:41.210Z,22.73
2019-02-11T22:50:48.070Z,28.10
2019-02-11T22:53:54.908Z,19.33
2019-02-11T22:57:01.653Z,23.90
2019-02-11T23:00:15.108Z,15.13
2019-02-11T23:03:21.870Z,14.17
2019-02-11T23:06:28.664Z,17.57
2019-02-11T23:09:35.824Z,17.73
2019-02-11T23:12:42.620Z,19.50
2019-02-11T23:15:49.351Z,14.70
2019-02-11T23:18:56.149Z,17.37
2019-02-11T23:22:02.919Z,19.00
2019-02-11T23:25:09.776Z,15.10
2019-02-11T23:28:16.506Z,16.57
2019-02-11T23:31:23.265Z,24.20
2019-02-11T23:34:30.116Z,14.83
2019-02-11T23:37:36.888Z,19.07
2019-02-11T23:40:43.658Z,21.87
2019-02-11T23:43:50.530Z,18.13
2019-02-11T23:46:57.345Z,18.43
2019-02-11T23:50:04.150Z,17.50
2019-02-11T23:53:10.904Z,13.40
2019-02-11T23:56:17.695Z,23.00
2019-02-11T23:59:24.571Z,9.03
